createdAt,value
2018-10-09T00:01:53.855Z,4.60
2018-10-09T00:04:21.828Z,4.80
2018-10-09T00:06:49.852Z,4.90
2018-10-09T00:09:17.357Z,5.37
2018-10-09T00:11:45.179Z,5.40
2018-10-09T00:14:13.300Z,5.20
2018-10-09T00:16:41.416Z,5.47
2018-10-09T00:19:08.974Z,4.65
2018-10-09T00:21:37.243Z,4.92
2018-10-09T00:24:04.900Z,5.03
2018-10-09T00:26:32.734Z,4.70
2018-10-09T00:29:00.718Z,5.30
2018-10-09T00:31:28.308Z,5.28
2018-10-09T00:33:57.515Z,5.67
2018-10-09T00:36:25.236Z,5.00
2018-10-09T00:38:52.835Z,5.47
2018-10-09T00:41:20.456Z,5.17
2018-10-09T00:43:48.314Z,5.33
2018-10-09T00:46:15.763Z,5.33
2018-10-09T00:48:43.596Z,5.20
2018-10-09T00:51:11.107Z,5.10
2018-10-09T00:53:39.430Z,4.92
2018-10-09T00:56:07.251Z,4.90
2018-10-09T00:58:35.218Z,5.67
2018-10-09T01:01:03.681Z,5.12
2018-10-09T01:03:31.102Z,5.70
2018-10-09T01:05:59.734Z,5.50
2018-10-09T01:08:27.299Z,5.33
2018-10-09T01:10:55.789Z,5.40
2018-10-09T01:13:24.068Z,5.58
2018-10-09T01:15:52.677Z,5.60
2018-10-09T01:18:20.980Z,5.42
2018-10-09T01:20:48.900Z,4.90
2018-10-09T01:23:16.588Z,6.12
2018-10-09T01:25:44.311Z,5.75
2018-10-09T01:28:11.874Z,6.40
2018-10-09T01:30:39.496Z,6.00
2018-10-09T01:33:07.046Z,6.40
2018-10-09T01:35:34.865Z,6.10
2018-10-09T01:38:02.348Z,5.70
2018-10-09T01:40:30.094Z,6.40
2018-10-09T01:42:57.770Z,6.70
2018-10-09T01:45:26.135Z,6.62
2018-10-09T01:47:54.207Z,6.65
2018-10-09T01:50:22.020Z,6.70
2018-10-09T01:52:49.434Z,6.30
2018-10-09T01:55:18.329Z,6.30
2018-10-09T01:57:46.309Z,6.45
2018-10-09T02:00:14.183Z,6.87
2018-10-09T02:02:42.691Z,6.70
2018-10-09T02:05:11.215Z,6.62
2018-10-09T02:07:39.818Z,6.40
2018-10-09T02:10:07.801Z,6.80
2018-10-09T02:12:35.352Z,6.75
2018-10-09T02:15:03.605Z,6.70
2018-10-09T02:17:32.086Z,7.15
2018-10-09T02:20:01.714Z,6.37
2018-10-09T02:22:29.772Z,7.12
2018-10-09T02:24:57.844Z,6.40
2018-10-09T02:27:25.531Z,6.60
2018-10-09T02:29:53.470Z,6.20
2018-10-09T02:32:21.075Z,6.60
2018-10-09T02:34:48.668Z,6.55
2018-10-09T02:37:16.488Z,7.12
2018-10-09T02:39:44.051Z,7.58
2018-10-09T02:42:11.591Z,6.50
2018-10-09T02:44:40.067Z,7.00
2018-10-09T02:47:07.597Z,7.00
2018-10-09T02:49:35.248Z,7.00
2018-10-09T02:52:03.580Z,6.40
2018-10-09T02:54:31.226Z,7.17
2018-10-09T02:56:58.932Z,7.50
2018-10-09T02:59:26.473Z,6.80
2018-10-09T03:01:54.313Z,6.95
2018-10-09T03:04:22.798Z,6.78
2018-10-09T03:06:50.319Z,7.60
2018-10-09T03:09:18.019Z,7.62
2018-10-09T03:11:45.497Z,7.50
2018-10-09T03:14:13.125Z,7.60
2018-10-09T03:16:41.452Z,8.20
2018-10-09T03:19:08.933Z,7.72
2018-10-09T03:21:36.840Z,7.10
2018-10-09T03:24:04.979Z,6.80
2018-10-09T03:26:33.400Z,7.33
2018-10-09T03:29:01.506Z,7.30
2018-10-09T03:31:29.178Z,7.95
2018-10-09T03:33:56.727Z,7.20
2018-10-09T03:36:24.259Z,6.70
2018-10-09T03:38:51.964Z,7.33
2018-10-09T03:41:19.607Z,8.25
2018-10-09T03:43:47.570Z,7.95
2018-10-09T03:46:16.234Z,7.40
2018-10-09T03:48:43.788Z,7.10
2018-10-09T03:51:11.238Z,6.55
2018-10-09T03:53:40.035Z,9.00
2018-10-09T03:56:08.523Z,7.33
2018-10-09T03:58:36.028Z,7.67
2018-10-09T04:01:03.877Z,8.83
2018-10-09T04:03:31.335Z,8.50
2018-10-09T04:05:58.919Z,8.60
2018-10-09T04:08:26.338Z,9.40
2018-10-09T04:10:54.395Z,9.47
2018-10-09T04:13:22.525Z,9.47
2018-10-09T04:15:49.966Z,9.75
2018-10-09T04:18:17.416Z,9.70
2018-10-09T04:20:45.204Z,9.17
2018-10-09T04:23:13.324Z,9.70
2018-10-09T04:25:40.969Z,10.38
2018-10-09T04:28:08.886Z,9.60
2018-10-09T04:30:36.664Z,10.23
2018-10-09T04:33:04.374Z,10.53
2018-10-09T04:35:32.098Z,10.10
2018-10-09T04:38:00.467Z,12.58
2018-10-09T04:40:28.189Z,10.90
2018-10-09T04:42:55.650Z,10.28
2018-10-09T04:45:23.322Z,9.80
2018-10-09T04:47:50.917Z,10.15
2018-10-09T04:50:18.478Z,9.75
2018-10-09T04:52:46.604Z,10.40
2018-10-09T04:55:14.599Z,10.48
2018-10-09T04:57:42.319Z,10.60
2018-10-09T05:00:10.850Z,9.78
2018-10-09T05:02:38.686Z,10.75
2018-10-09T05:05:06.186Z,10.80
2018-10-09T05:07:33.940Z,10.20
2018-10-09T05:10:02.079Z,10.10
2018-10-09T05:12:30.563Z,10.90
2018-10-09T05:14:58.895Z,10.45
2018-10-09T05:17:26.543Z,11.20
2018-10-09T05:19:54.293Z,10.98
2018-10-09T05:22:22.355Z,11.15
2018-10-09T05:24:49.928Z,11.05
2018-10-09T05:27:17.876Z,10.63
2018-10-09T05:29:45.645Z,10.50
2018-10-09T05:32:13.284Z,9.95
2018-10-09T05:34:41.363Z,11.20
2018-10-09T05:37:09.875Z,11.03
2018-10-09T05:39:37.819Z,11.55
2018-10-09T05:42:05.583Z,11.93
2018-10-09T05:44:33.038Z,12.10
2018-10-09T05:47:00.773Z,11.80
2018-10-09T05:49:28.272Z,12.07
2018-10-09T05:51:56.073Z,12.10
2018-10-09T05:54:23.600Z,12.65
2018-10-09T05:56:51.323Z,12.13
2018-10-09T05:59:18.782Z,12.35
2018-10-09T06:01:46.695Z,12.53
2018-10-09T06:04:14.550Z,12.35
2018-10-09T06:06:42.411Z,12.40
2018-10-09T06:09:11.041Z,11.57
2018-10-09T06:11:39.720Z,11.80
2018-10-09T06:14:08.154Z,12.25
2018-10-09T06:16:35.896Z,21.10
2018-10-09T06:19:04.869Z,12.33
2018-10-09T06:21:32.804Z,11.93
2018-10-09T06:24:00.534Z,12.47
2018-10-09T06:26:28.577Z,12.63
2018-10-09T06:28:56.904Z,12.40
2018-10-09T06:31:24.851Z,12.50
2018-10-09T06:33:52.509Z,12.07
2018-10-09T06:36:19.986Z,12.35
2018-10-09T06:38:47.838Z,12.35
2018-10-09T06:41:15.635Z,12.93
2018-10-09T06:43:43.139Z,12.80
2018-10-09T06:46:14.336Z,12.60
2018-10-09T06:48:42.204Z,13.35
2018-10-09T06:51:10.271Z,12.47
2018-10-09T06:53:38.073Z,13.43
2018-10-09T06:56:05.567Z,13.27
2018-10-09T06:58:33.731Z,13.10
2018-10-09T07:01:01.276Z,13.05
2018-10-09T07:03:28.754Z,12.80
2018-10-09T07:05:56.204Z,13.40
2018-10-09T07:08:23.930Z,13.07
2018-10-09T07:10:52.001Z,12.70
2018-10-09T07:13:19.499Z,13.58
2018-10-09T07:15:47.715Z,12.73
2018-10-09T07:18:15.163Z,13.93
2018-10-09T07:20:42.647Z,13.25
2018-10-09T07:23:10.715Z,13.38
2018-10-09T07:25:38.536Z,12.80
2018-10-09T07:28:06.178Z,12.60
2018-10-09T07:30:34.049Z,12.13
2018-10-09T07:33:01.871Z,13.03
2018-10-09T07:35:30.032Z,12.95
2018-10-09T07:37:57.789Z,12.00
2018-10-09T07:40:25.232Z,11.83
2018-10-09T07:42:53.028Z,12.20
2018-10-09T07:45:20.478Z,26.53
2018-10-09T07:47:48.267Z,12.30
2018-10-09T07:50:15.763Z,12.43
2018-10-09T07:52:43.588Z,12.30
2018-10-09T07:55:11.088Z,12.50
2018-10-09T07:57:38.902Z,12.90
2018-10-09T08:00:06.536Z,12.37
2018-10-09T08:02:34.332Z,12.88
2018-10-09T08:05:01.796Z,12.53
2018-10-09T08:07:29.290Z,12.55
2018-10-09T08:09:56.775Z,12.73
2018-10-09T08:12:24.364Z,12.25
2018-10-09T08:14:52.146Z,12.80
2018-10-09T08:17:19.674Z,12.10
2018-10-09T08:19:47.792Z,12.20
2018-10-09T08:22:15.280Z,12.50
2018-10-09T08:24:42.807Z,12.30
2018-10-09T08:27:10.702Z,12.78
2018-10-09T08:29:38.375Z,13.22
2018-10-09T08:32:06.218Z,13.48
2018-10-09T08:34:33.801Z,14.43
2018-10-09T08:37:01.310Z,14.63
2018-10-09T08:39:28.813Z,14.20
2018-10-09T08:41:56.545Z,15.00
2018-10-09T08:44:24.296Z,14.70
2018-10-09T08:46:52.076Z,14.33
2018-10-09T08:49:19.596Z,14.57
2018-10-09T08:51:47.360Z,14.05
2018-10-09T08:54:15.656Z,15.60
2018-10-09T08:56:43.629Z,15.03
2018-10-09T08:59:11.343Z,14.50
2018-10-09T09:01:38.940Z,14.07
2018-10-09T09:04:07.160Z,13.73
2018-10-09T09:06:34.983Z,12.73
2018-10-09T09:09:02.857Z,11.95
2018-10-09T09:11:30.409Z,12.30
2018-10-09T09:13:58.264Z,21.35
2018-10-09T09:16:25.708Z,13.38
2018-10-09T09:18:53.503Z,11.43
2018-10-09T09:21:21.012Z,12.80
2018-10-09T09:23:48.808Z,13.10
2018-10-09T09:26:17.019Z,13.20
2018-10-09T09:28:44.664Z,12.70
2018-10-09T09:31:12.178Z,12.30
2018-10-09T09:33:39.688Z,12.70
2018-10-09T09:36:07.311Z,13.18
2018-10-09T09:38:35.153Z,12.60
2018-10-09T09:41:03.079Z,10.90
2018-10-09T09:43:31.402Z,12.40
2018-10-09T09:45:58.977Z,13.10
2018-10-09T09:48:26.442Z,13.93
2018-10-09T09:50:54.231Z,27.35
2018-10-09T09:53:22.101Z,14.28
2018-10-09T09:55:49.593Z,13.75
2018-10-09T09:58:17.369Z,12.47
2018-10-09T10:00:50.571Z,13.25
2018-10-09T10:03:18.299Z,12.85
2018-10-09T10:05:45.792Z,12.33
2018-10-09T10:08:13.262Z,13.98
2018-10-09T10:10:40.968Z,13.10
2018-10-09T10:13:08.591Z,13.32
2018-10-09T10:15:36.079Z,13.05
2018-10-09T10:18:03.956Z,13.37
2018-10-09T10:20:31.390Z,12.60
2018-10-09T10:22:58.869Z,12.83
2018-10-09T10:25:26.377Z,12.68
2018-10-09T10:27:53.804Z,11.43
2018-10-09T10:30:21.560Z,11.30
2018-10-09T10:32:49.068Z,11.70
2018-10-09T10:35:16.593Z,12.63
2018-10-09T10:37:44.084Z,12.33
2018-10-09T10:40:11.589Z,12.70
2018-10-09T10:42:39.127Z,13.50
2018-10-09T10:45:06.606Z,12.20
2018-10-09T10:47:34.301Z,12.23
2018-10-09T10:50:02.120Z,11.60
2018-10-09T10:52:29.621Z,11.70
2018-10-09T10:54:57.154Z,10.72
2018-10-09T10:57:24.685Z,10.35
2018-10-09T10:59:52.195Z,11.40
2018-10-09T11:02:19.933Z,12.25
2018-10-09T11:04:47.685Z,13.03
2018-10-09T11:07:15.470Z,12.60
2018-10-09T11:09:42.969Z,12.70
2018-10-09T11:12:10.670Z,14.83
2018-10-09T11:14:38.202Z,16.00
2018-10-09T11:17:06.322Z,16.40
2018-10-09T11:22:13.285Z,17.17
2018-10-09T11:24:41.397Z,15.70
2018-10-09T11:27:08.989Z,17.27
2018-10-09T11:29:37.589Z,16.10
2018-10-09T11:32:05.715Z,15.32
2018-10-09T11:34:33.174Z,15.60
2018-10-09T11:37:00.777Z,16.27
2018-10-09T11:39:28.637Z,16.53
2018-10-09T11:41:56.112Z,15.78
2018-10-09T11:44:24.238Z,14.93
2018-10-09T11:46:51.736Z,14.43
2018-10-09T11:49:19.296Z,15.20
2018-10-09T11:51:47.113Z,14.20
2018-10-09T11:54:14.921Z,14.23
2018-10-09T11:56:42.489Z,14.20
2018-10-09T11:59:10.352Z,13.55
2018-10-09T12:01:37.844Z,13.80
2018-10-09T12:04:05.308Z,14.35
2018-10-09T12:06:33.123Z,14.13
2018-10-09T12:09:00.915Z,12.43
2018-10-09T12:11:28.388Z,13.15
2018-10-09T12:13:55.936Z,13.00
2018-10-09T12:16:23.438Z,12.05
2018-10-09T12:18:51.208Z,10.72
2018-10-09T12:21:18.704Z,13.40
2018-10-09T12:23:46.212Z,11.75
2018-10-09T12:26:14.037Z,12.30
2018-10-09T12:28:41.890Z,14.03
2018-10-09T12:31:09.457Z,12.88
2018-10-09T12:33:37.169Z,12.57
2018-10-09T12:36:05.038Z,12.93
2018-10-09T12:38:32.611Z,12.17
2018-10-09T12:41:00.092Z,12.60
2018-10-09T12:43:27.823Z,11.95
2018-10-09T12:45:55.646Z,12.70
2018-10-09T12:48:23.111Z,12.28
2018-10-09T12:50:50.993Z,12.20
2018-10-09T12:53:19.193Z,11.57
2018-10-09T12:55:47.262Z,11.00
2018-10-09T12:58:15.069Z,11.22
2018-10-09T13:00:42.576Z,10.85
2018-10-09T13:03:10.203Z,10.17
2018-10-09T13:05:37.916Z,10.50
2018-10-09T13:08:05.487Z,10.10
2018-10-09T13:10:32.976Z,9.80
2018-10-09T13:13:00.748Z,9.68
2018-10-09T13:15:28.563Z,10.90
2018-10-09T13:17:56.321Z,11.60
2018-10-09T13:20:23.813Z,11.13
2018-10-09T13:22:51.576Z,9.73
2018-10-09T13:25:19.312Z,10.23
2018-10-09T13:27:46.826Z,11.00
2018-10-09T13:30:14.379Z,10.32
2018-10-09T13:32:42.217Z,11.10
2018-10-09T13:35:09.703Z,11.20
2018-10-09T13:37:37.123Z,10.75
2018-10-09T13:40:04.729Z,31.30
2018-10-09T13:42:32.272Z,16.07
2018-10-09T13:44:59.758Z,11.38
2018-10-09T13:47:27.407Z,10.03
2018-10-09T13:49:55.172Z,11.45
2018-10-09T13:52:22.614Z,10.50
2018-10-09T13:54:50.133Z,10.20
2018-10-09T13:57:17.741Z,10.68
2018-10-09T13:59:45.277Z,10.85
2018-10-09T14:02:12.760Z,10.40
2018-10-09T14:04:40.581Z,10.20
2018-10-09T14:07:08.231Z,10.80
2018-10-09T14:09:36.113Z,10.00
2018-10-09T14:12:04.233Z,9.88
2018-10-09T14:14:32.106Z,10.38
2018-10-09T14:16:59.605Z,9.88
2018-10-09T14:19:27.383Z,8.90
2018-10-09T14:21:55.170Z,9.37
2018-10-09T14:24:23.044Z,8.93
2018-10-09T14:26:50.565Z,9.90
2018-10-09T14:29:18.022Z,9.18
2018-10-09T14:31:45.495Z,9.13
2018-10-09T14:34:13.301Z,8.97
2018-10-09T14:36:40.929Z,8.98
2018-10-09T14:39:09.595Z,9.33
2018-10-09T14:41:37.526Z,9.30
2018-10-09T14:44:05.483Z,8.60
2018-10-09T14:46:32.950Z,8.80
2018-10-09T14:49:00.701Z,9.20
2018-10-09T14:51:28.202Z,8.43
2018-10-09T14:53:56.285Z,9.00
2018-10-09T14:56:24.211Z,8.43
2018-10-09T14:58:51.765Z,8.10
2018-10-09T15:01:19.500Z,8.40
2018-10-09T15:03:47.025Z,8.13
2018-10-09T15:06:15.113Z,7.72
2018-10-09T15:08:42.875Z,7.90
2018-10-09T15:11:10.699Z,7.63
2018-10-09T15:13:38.172Z,8.45
2018-10-09T15:16:05.680Z,7.47
2018-10-09T15:18:33.827Z,7.60
2018-10-09T15:21:01.597Z,6.87
2018-10-09T15:23:29.355Z,8.03
2018-10-09T15:25:57.185Z,7.15
2018-10-09T15:28:24.696Z,7.23
2018-10-09T15:30:52.218Z,7.92
2018-10-09T15:33:19.985Z,7.47
2018-10-09T15:35:47.507Z,6.90
2018-10-09T15:38:14.976Z,6.53
2018-10-09T15:40:42.938Z,6.62
2018-10-09T15:43:10.473Z,7.30
2018-10-09T15:45:37.967Z,6.97
2018-10-09T15:48:05.782Z,6.40
2018-10-09T15:50:33.598Z,5.90
2018-10-09T15:53:01.733Z,5.30
2018-10-09T15:55:29.221Z,5.65
2018-10-09T15:57:57.397Z,5.70
2018-10-09T16:00:25.345Z,6.30
2018-10-09T16:02:53.242Z,10.80
2018-10-09T16:05:20.727Z,14.90
2018-10-09T16:07:48.826Z,10.72
2018-10-09T16:10:16.638Z,6.35
2018-10-09T16:12:44.079Z,5.28
2018-10-09T16:15:11.916Z,6.50
2018-10-09T16:17:39.376Z,5.80
2018-10-09T16:20:07.237Z,9.98
2018-10-09T16:22:35.106Z,16.00
2018-10-09T16:25:02.633Z,7.35
2018-10-09T16:27:30.329Z,5.75
2018-10-09T16:29:57.817Z,5.50
2018-10-09T16:32:25.655Z,7.87
2018-10-09T16:34:53.105Z,5.53
2018-10-09T16:37:20.558Z,5.83
2018-10-09T16:39:48.397Z,5.10
2018-10-09T16:42:16.208Z,4.15
2018-10-09T16:44:43.976Z,4.92
2018-10-09T16:47:11.749Z,5.12
2018-10-09T16:49:39.373Z,6.00
2018-10-09T16:52:07.263Z,6.00
2018-10-09T16:54:35.129Z,5.85
2018-10-09T16:57:02.968Z,8.73
2018-10-09T16:59:31.059Z,6.40
2018-10-09T17:01:58.936Z,6.00
2018-10-09T17:04:26.471Z,5.75
2018-10-09T17:06:54.043Z,5.70
2018-10-09T17:09:22.147Z,5.67
2018-10-09T17:11:49.908Z,6.08
2018-10-09T17:14:17.661Z,5.97
2018-10-09T17:16:45.416Z,5.20
2018-10-09T17:19:13.189Z,5.50
2018-10-09T17:21:40.680Z,6.20
2018-10-09T17:24:08.514Z,5.65
2018-10-09T17:26:36.110Z,6.03
2018-10-09T17:29:03.643Z,5.75
2018-10-09T17:31:31.214Z,5.42
2018-10-09T17:33:59.261Z,5.17
2018-10-09T17:36:26.761Z,5.15
2018-10-09T17:38:54.443Z,5.25
2018-10-09T17:41:22.305Z,5.33
2018-10-09T17:43:50.135Z,5.83
2018-10-09T17:46:17.893Z,5.90
2018-10-09T17:48:46.121Z,5.12
2018-10-09T17:51:13.559Z,5.12
2018-10-09T17:53:41.096Z,5.40
2018-10-09T17:56:08.941Z,5.33
2018-10-09T17:58:36.776Z,5.58
2018-10-09T18:01:04.488Z,4.83
2018-10-09T18:03:32.036Z,5.20
2018-10-09T18:05:59.550Z,5.70
2018-10-09T18:08:27.393Z,5.30
2018-10-09T18:10:55.257Z,5.58
2018-10-09T18:13:23.020Z,4.70
2018-10-09T18:15:50.893Z,5.40
2018-10-09T18:18:18.641Z,5.67
2018-10-09T18:20:46.174Z,4.57
2018-10-09T18:23:13.696Z,4.80
2018-10-09T18:25:41.242Z,4.92
2018-10-09T18:28:09.205Z,5.20
2018-10-09T18:30:36.780Z,5.70
2018-10-09T18:33:04.540Z,4.90
2018-10-09T18:35:32.326Z,5.05
2018-10-09T18:38:00.693Z,5.12
2018-10-09T18:40:28.300Z,5.70
2018-10-09T18:42:55.824Z,5.40
2018-10-09T18:45:23.785Z,5.60
2018-10-09T18:47:51.769Z,6.10
2018-10-09T18:50:19.530Z,4.78
2018-10-09T18:52:47.032Z,6.55
2018-10-09T18:55:16.017Z,6.00
2018-10-09T18:57:43.935Z,19.52
2018-10-09T19:00:13.036Z,7.95
2018-10-09T19:02:41.491Z,6.40
2018-10-09T19:05:10.013Z,5.90
2018-10-09T19:07:38.113Z,6.22
2018-10-09T19:10:06.003Z,5.60
2018-10-09T19:12:33.620Z,5.40
2018-10-09T19:15:01.510Z,6.23
2018-10-09T19:17:28.996Z,7.30
2018-10-09T19:19:56.691Z,5.67
2018-10-09T19:22:24.220Z,5.40
2018-10-09T19:24:52.488Z,6.70
2018-10-09T19:27:20.311Z,7.15
2018-10-09T19:29:47.894Z,6.85
2018-10-09T19:32:15.349Z,6.87
2018-10-09T19:34:42.949Z,7.85
2018-10-09T19:37:10.540Z,8.70
2018-10-09T19:39:38.215Z,8.00
2018-10-09T19:42:06.413Z,8.53
2018-10-09T19:44:34.327Z,6.92
2018-10-09T19:47:02.013Z,7.00
2018-10-09T19:49:29.876Z,8.08
2018-10-09T19:51:57.681Z,6.75
2018-10-09T19:54:25.160Z,6.20
2018-10-09T19:56:53.210Z,6.87
2018-10-09T19:59:20.776Z,7.03
2018-10-09T20:01:48.162Z,6.80
2018-10-09T20:04:15.992Z,7.23
2018-10-09T20:06:43.913Z,8.43
2018-10-09T20:09:12.791Z,7.40
2018-10-09T20:11:40.668Z,6.92
2018-10-09T20:14:08.763Z,7.63
2018-10-09T20:16:36.356Z,7.10
2018-10-09T20:19:04.434Z,7.58
2018-10-09T20:21:31.878Z,7.75
2018-10-09T20:23:59.329Z,7.92
2018-10-09T20:26:27.144Z,9.33
2018-10-09T20:28:54.980Z,8.50
2018-10-09T20:31:22.522Z,7.80
2018-10-09T20:33:50.261Z,8.27
2018-10-09T20:36:18.075Z,7.35
2018-10-09T20:38:45.642Z,7.20
2018-10-09T20:41:13.392Z,8.20
2018-10-09T20:43:40.864Z,8.08
2018-10-09T20:46:08.653Z,8.13
2018-10-09T20:48:36.477Z,7.60
2018-10-09T20:51:03.969Z,6.90
2018-10-09T20:53:31.432Z,6.58
2018-10-09T20:55:59.168Z,8.08
2018-10-09T20:58:26.925Z,8.30
2018-10-09T21:00:54.511Z,7.85
2018-10-09T21:03:22.667Z,6.30
2018-10-09T21:05:50.254Z,8.20
2018-10-09T21:08:17.727Z,7.90
2018-10-09T21:10:45.657Z,8.13
2018-10-09T21:13:13.360Z,7.67
2018-10-09T21:15:40.885Z,7.72
2018-10-09T21:18:08.628Z,7.95
2018-10-09T21:20:36.707Z,8.13
2018-10-09T21:23:04.212Z,8.60
2018-10-09T21:25:31.704Z,8.93
2018-10-09T21:27:59.173Z,9.35
2018-10-09T21:30:27.043Z,9.30
2018-10-09T21:32:55.115Z,10.23
2018-10-09T21:35:22.940Z,10.05
2018-10-09T21:37:50.359Z,10.78
2018-10-09T21:40:17.879Z,10.40
2018-10-09T21:42:45.355Z,9.93
2018-10-09T21:45:12.925Z,10.38
2018-10-09T21:47:44.759Z,10.15
2018-10-09T21:50:12.263Z,9.73
2018-10-09T21:52:39.752Z,9.43
2018-10-09T21:55:07.218Z,9.20
2018-10-09T21:57:34.737Z,10.20
2018-10-09T22:00:02.579Z,10.20
2018-10-09T22:02:30.349Z,10.80
2018-10-09T22:04:58.129Z,10.30
2018-10-09T22:07:25.673Z,11.03
2018-10-09T22:09:53.470Z,10.78
2018-10-09T22:12:21.042Z,10.60
2018-10-09T22:14:48.563Z,10.60
2018-10-09T22:17:16.630Z,10.70
2018-10-09T22:19:44.425Z,9.78
2018-10-09T22:22:11.932Z,10.30
2018-10-09T22:24:39.740Z,11.97
2018-10-09T22:27:07.289Z,11.50
2018-10-09T22:29:35.349Z,12.37
2018-10-09T22:32:03.319Z,11.12
2018-10-09T22:34:31.068Z,11.45
2018-10-09T22:36:58.877Z,11.73
2018-10-09T22:39:26.648Z,10.98
2018-10-09T22:41:54.185Z,10.55
2018-10-09T22:44:22.352Z,10.60
2018-10-09T22:46:49.860Z,9.60
2018-10-09T22:49:17.420Z,9.23
2018-10-09T22:51:44.987Z,9.95
2018-10-09T22:54:13.164Z,9.00
2018-10-09T22:56:41.268Z,9.08
2018-10-09T22:59:09.097Z,10.00
2018-10-09T23:01:36.641Z,9.70
2018-10-09T23:04:04.729Z,9.60
2018-10-09T23:06:32.581Z,9.48
2018-10-09T23:09:00.812Z,9.50
2018-10-09T23:11:28.240Z,9.90
2018-10-09T23:13:55.703Z,9.18
2018-10-09T23:16:23.214Z,9.63
2018-10-09T23:18:50.677Z,9.65
2018-10-09T23:21:18.440Z,10.35
2018-10-09T23:23:46.260Z,10.20
2018-10-09T23:26:14.051Z,11.05
2018-10-09T23:28:41.804Z,11.63
2018-10-09T23:31:09.673Z,10.20
2018-10-09T23:33:37.423Z,10.25
2018-10-09T23:36:04.904Z,10.40
2018-10-09T23:38:32.693Z,11.38
2018-10-09T23:41:00.431Z,10.07
2018-10-09T23:43:27.971Z,11.57
2018-10-09T23:45:55.443Z,10.83
2018-10-09T23:48:23.517Z,10.00
2018-10-09T23:50:51.483Z,10.30
2018-10-09T23:53:19.247Z,13.03
2018-10-09T23:55:47.387Z,13.85
2018-10-09T23:58:14.920Z,13.90
